Time;durP1;ratioP1;P1;durP2;ratioP2;P2;SDS_P1;SDS_P2;PMS_P1;PMS_P2;Temp;Humidity;BMP_temperature;BMP_pressure;BME280_temperature;BME280_humidity;BME280_pressure;Samples;Min_cycle;Max_cycle;Signal;HPM_P1;HPM_P2
2021/12/19 00:02:33;;;;;;;7.73;5.50;;;;;;;0.82;100.00;99605.44;5035088;28;20201;-72
2021/12/19 00:10:32;;;;;;;5.60;5.10;;;;;;;0.84;100.00;99591.41;5033546;28;20530;-72
2021/12/19 00:13:00;;;;;;;5.50;4.93;;;;;;;0.82;100.00;99590.63;5037168;28;20323;-74
2021/12/19 00:15:30;;;;;;;6.60;5.67;;;;;;;0.74;100.00;99591.84;5004152;28;20219;-73
2021/12/19 00:17:58;;;;;;;6.10;4.37;;;;;;;0.70;100.00;99581.53;5037015;28;20204;-74
2021/12/19 00:20:26;;;;;;;7.27;5.57;;;;;;;0.73;100.00;99585.78;5028571;28;20269;-73
2021/12/19 00:23:14;;;;;;;6.43;4.60;;;;;;;0.70;100.00;99580.69;5038731;28;20314;-72
2021/12/19 00:25:42;;;;;;;5.60;4.97;;;;;;;0.67;100.00;99573.00;5034823;28;20585;-74
2021/12/19 00:28:10;;;;;;;5.80;5.20;;;;;;;0.68;100.00;99569.47;5037058;28;20200;-75
2021/12/19 00:30:40;;;;;;;6.03;4.97;;;;;;;0.67;100.00;99565.16;5001566;28;20655;-72
2021/12/19 00:33:08;;;;;;;5.97;5.10;;;;;;;0.64;100.00;99563.50;5035393;28;20227;-73
2021/12/19 00:35:36;;;;;;;6.70;4.77;;;;;;;0.62;100.00;99561.91;5031390;28;20606;-73
2021/12/19 00:38:05;;;;;;;6.60;5.23;;;;;;;0.64;100.00;99562.69;5025564;28;20706;-73
2021/12/19 00:40:33;;;;;;;7.70;5.13;;;;;;;0.65;100.00;99564.38;5035418;28;20211;-72
2021/12/19 00:43:06;;;;;;;5.20;4.57;;;;;;;0.63;100.00;99550.53;5037235;28;20219;-74
2021/12/19 00:45:36;;;;;;;6.77;5.00;;;;;;;0.67;100.00;99552.94;5001970;28;20732;-74
2021/12/19 00:48:08;;;;;;;5.23;4.57;;;;;;;0.55;100.00;99549.06;5035576;28;20211;-74
2021/12/19 00:50:37;;;;;;;6.00;5.03;;;;;;;0.66;100.00;99553.84;5030690;28;20286;-73
2021/12/19 00:53:05;;;;;;;7.93;5.53;;;;;;;0.61;100.00;99558.41;5021285;28;20701;-72
2021/12/19 00:55:33;;;;;;;4.00;3.60;;;;;;;0.62;100.00;99548.84;5032017;28;20413;-73
2021/12/19 00:58:02;;;;;;;4.47;4.07;;;;;;;0.65;100.00;99553.94;5035038;28;20199;-75
2021/12/19 01:00:32;;;;;;;5.27;4.77;;;;;;;0.64;100.00;99549.63;5007534;28;20203;-73
2021/12/19 01:03:00;;;;;;;5.00;4.53;;;;;;;0.63;100.00;99547.94;5032971;28;20227;-74
2021/12/19 01:05:33;;;;;;;3.97;3.50;;;;;;;0.74;100.00;99539.66;5034218;28;20239;-72
2021/12/19 01:08:02;;;;;;;4.50;3.90;;;;;;;0.65;100.00;99551.34;5025448;28;20485;-75
2021/12/19 01:10:30;;;;;;;5.87;4.47;;;;;;;0.69;100.00;99555.50;5032259;28;20204;-72
2021/12/19 01:12:58;;;;;;;4.87;3.70;;;;;;;0.74;100.00;99570.97;5033082;28;20238;-71
2021/12/19 01:15:26;;;;;;;4.07;3.60;;;;;;;0.66;100.00;99568.69;5035388;28;20406;-73
2021/12/19 01:17:54;;;;;;;6.30;4.17;;;;;;;0.65;100.00;99556.53;5008550;28;20223;-72
2021/12/19 01:20:25;;;;;;;4.73;4.33;;;;;;;0.65;100.00;99554.78;5036752;28;20204;-73
2021/12/19 01:22:55;;;;;;;4.87;4.47;;;;;;;0.65;100.00;99549.56;5044113;28;20718;-72
2021/12/19 01:25:23;;;;;;;3.87;3.57;;;;;;;0.74;100.00;99542.25;5026362;28;20365;-73
2021/12/19 01:27:51;;;;;;;4.83;4.33;;;;;;;0.71;100.00;99546.69;5045802;28;20209;-73
2021/12/19 01:30:20;;;;;;;5.10;4.13;;;;;;;0.69;100.00;99547.69;5034332;28;20444;-76
2021/12/19 01:32:48;;;;;;;4.83;3.97;;;;;;;0.68;100.00;99549.44;5008036;28;20219;-74
2021/12/19 01:35:19;;;;;;;4.17;3.77;;;;;;;0.72;100.00;99551.00;5030957;28;20460;-74
2021/12/19 01:37:47;;;;;;;4.23;3.63;;;;;;;0.71;100.00;99545.84;5036006;28;20207;-74
2021/12/19 01:40:18;;;;;;;4.33;3.93;;;;;;;0.80;100.00;99539.41;5022768;28;20207;-75
2021/12/19 01:42:52;;;;;;;4.10;3.70;;;;;;;0.75;100.00;99541.34;5033253;28;20215;-75
2021/12/19 01:45:24;;;;;;;5.30;3.97;;;;;;;0.70;100.00;99538.94;5031103;28;20204;-76
2021/12/19 01:47:53;;;;;;;5.33;3.40;;;;;;;0.76;100.00;99541.28;5006968;28;20219;-74
2021/12/19 01:50:21;;;;;;;4.70;4.20;;;;;;;0.75;100.00;99547.44;5035557;28;20206;-75
2021/12/19 01:52:49;;;;;;;4.53;4.07;;;;;;;0.76;100.00;99546.50;5035297;28;20306;-74
2021/12/19 01:55:19;;;;;;;4.20;3.80;;;;;;;0.85;100.00;99540.06;5024315;28;20437;-77
2021/12/19 01:57:47;;;;;;;4.13;3.70;;;;;;;0.88;100.00;99539.06;5031241;28;20212;-75
2021/12/19 02:00:22;;;;;;;4.03;3.63;;;;;;;0.91;100.00;99541.56;5029959;28;20639;-75
2021/12/19 02:02:50;;;;;;;4.00;3.63;;;;;;;0.82;100.00;99527.97;5033826;28;20207;-75
2021/12/19 02:05:19;;;;;;;4.77;4.03;;;;;;;0.86;100.00;99524.31;5014030;28;20214;-74
2021/12/19 02:07:48;;;;;;;5.27;4.40;;;;;;;0.92;100.00;99524.97;5033115;28;20242;-73
2021/12/19 02:10:19;;;;;;;4.07;3.67;;;;;;;0.93;100.00;99519.69;5018505;28;20325;-74
2021/12/19 02:12:48;;;;;;;4.13;3.73;;;;;;;0.95;100.00;99507.44;5034149;28;20401;-74
2021/12/19 02:15:19;;;;;;;3.93;3.63;;;;;;;0.94;100.00;99499.66;5039045;28;20233;-73
2021/12/19 02:17:49;;;;;;;4.77;4.20;;;;;;;0.96;100.00;99503.06;5031068;28;20222;-72
2021/12/19 02:20:20;;;;;;;3.97;3.67;;;;;;;0.93;100.00;99509.25;5006517;28;20684;-73
2021/12/19 02:22:49;;;;;;;4.97;4.10;;;;;;;0.91;100.00;99500.66;5028743;28;20437;-73
2021/12/19 02:25:17;;;;;;;5.33;4.70;;;;;;;0.93;100.00;99497.97;5020800;28;20222;-75
2021/12/19 02:27:45;;;;;;;6.33;3.80;;;;;;;1.02;100.00;99497.59;5038167;28;20302;-75
2021/12/19 02:30:14;;;;;;;4.57;4.17;;;;;;;1.06;100.00;99499.16;5036713;28;20203;-75
2021/12/19 02:32:42;;;;;;;4.60;4.20;;;;;;;1.01;100.00;99494.09;5033405;28;20607;-73
2021/12/19 02:35:15;;;;;;;4.30;3.90;;;;;;;0.99;100.00;99497.72;5011619;28;20363;-74
2021/12/19 02:48:07;;;;;;;4.13;3.73;;;;;;;1.02;100.00;99492.38;5014027;28;20466;-74
2021/12/19 02:48:56;;;;;;;4.37;3.80;;;;;;;1.05;100.00;99489.63;5030569;28;20734;-74
2021/12/19 02:51:30;;;;;;;4.10;3.80;;;;;;;1.07;100.00;99487.78;5006856;28;20212;-75
2021/12/19 02:54:00;;;;;;;4.63;3.70;;;;;;;1.12;100.00;99485.81;5032675;28;20631;-77
2021/12/19 02:56:29;;;;;;;4.17;3.63;;;;;;;1.08;100.00;99481.66;5028259;28;20217;-73
2021/12/19 02:58:57;;;;;;;6.00;4.40;;;;;;;1.08;100.00;99481.66;5038536;28;20294;-75
2021/12/19 03:01:25;;;;;;;4.40;3.73;;;;;;;1.12;100.00;99472.75;5038128;28;20688;-76
2021/12/19 03:03:53;;;;;;;4.50;3.90;;;;;;;1.11;100.00;99476.28;5032709;28;20234;-74
2021/12/19 03:06:22;;;;;;;3.77;3.40;;;;;;;1.11;100.00;99480.66;5009102;28;20216;-76
2021/12/19 03:08:51;;;;;;;4.73;4.20;;;;;;;1.08;100.00;99476.44;5029710;28;20222;-74
2021/12/19 03:19:54;;;;;;;4.10;3.70;;;;;;;1.18;100.00;99463.81;4995292;28;20212;-75
2021/12/19 03:22:22;;;;;;;5.23;4.20;;;;;;;1.15;100.00;99458.72;4999173;28;20467;-75
2021/12/19 03:24:50;;;;;;;4.80;3.60;;;;;;;1.13;100.00;99452.69;5034700;28;20235;-73
2021/12/19 03:27:20;;;;;;;4.07;3.67;;;;;;;1.13;100.00;99445.72;5025237;28;20211;-73
2021/12/19 03:29:48;;;;;;;5.63;4.13;;;;;;;1.13;100.00;99450.09;5039181;28;20202;-75
2021/12/19 03:32:16;;;;;;;4.27;3.63;;;;;;;1.15;100.00;99441.28;5033570;28;20207;-72
2021/12/19 03:34:44;;;;;;;5.40;4.30;;;;;;;1.10;100.00;99448.47;5042394;28;20277;-75
2021/12/19 03:37:11;;;;;;;4.50;4.10;;;;;;;1.15;100.00;99441.28;5012382;28;20227;-72
2021/12/19 03:39:56;;;;;;;6.07;4.73;;;;;;;1.13;100.00;99439.66;5049100;28;20206;-73
2021/12/19 03:42:26;;;;;;;5.17;4.60;;;;;;;1.13;100.00;99442.25;5025062;28;20812;-73
2021/12/19 03:44:55;;;;;;;4.73;4.33;;;;;;;1.05;100.00;99432.19;5050595;28;20230;-73
2021/12/19 03:47:22;;;;;;;7.00;4.87;;;;;;;1.04;100.00;99425.25;5035699;28;20199;-74
2021/12/19 03:49:51;;;;;;;5.43;4.37;;;;;;;1.09;100.00;99431.13;5038170;28;20269;-74
2021/12/19 03:52:19;;;;;;;5.20;4.70;;;;;;;1.05;100.00;99428.69;5011987;28;20301;-75
2021/12/19 03:54:46;;;;;;;4.37;3.90;;;;;;;1.15;100.00;99419.56;5033595;28;20238;-75
2021/12/19 03:57:15;;;;;;;4.83;4.43;;;;;;;1.07;100.00;99427.72;5023876;28;20208;-73
2021/12/19 03:59:47;;;;;;;4.70;4.30;;;;;;;1.09;100.00;99411.97;5044894;28;20568;-74
2021/12/19 04:02:23;;;;;;;4.40;4.00;;;;;;;1.14;100.00;99417.88;5032577;28;20204;-72
2021/12/19 04:04:51;;;;;;;4.40;4.00;;;;;;;1.10;100.00;99421.50;5038918;28;20242;-74
2021/12/19 04:07:19;;;;;;;4.07;3.73;;;;;;;1.13;100.00;99426.59;5006282;28;20213;-71
2021/12/19 04:09:47;;;;;;;4.37;3.97;;;;;;;1.08;100.00;99416.38;5035383;28;20290;-73
2021/12/19 04:12:16;;;;;;;4.90;4.47;;;;;;;1.03;100.00;99414.88;5026740;28;20684;-72
2021/12/19 04:14:45;;;;;;;4.67;3.87;;;;;;;1.07;100.00;99425.13;5041013;28;20224;-73
2021/12/19 04:17:13;;;;;;;3.87;3.50;;;;;;;1.08;100.00;99410.28;5039193;28;20207;-73
2021/12/19 04:19:41;;;;;;;5.07;4.00;;;;;;;1.13;100.00;99411.78;5021196;28;20215;-73
2021/12/19 04:22:10;;;;;;;5.93;4.13;;;;;;;1.42;100.00;99400.91;5019009;28;20208;-75
2021/12/19 04:24:38;;;;;;;4.97;4.47;;;;;;;1.36;100.00;99394.22;5026357;28;20258;-74
2021/12/19 04:27:06;;;;;;;4.30;3.90;;;;;;;1.27;100.00;99394.63;5025572;28;20228;-75
2021/12/19 04:29:34;;;;;;;3.80;3.50;;;;;;;1.44;100.00;99389.50;5014491;28;20207;-73
2021/12/19 04:32:06;;;;;;;4.47;3.73;;;;;;;1.28;100.00;99391.09;5033486;28;20527;-73
2021/12/19 04:34:35;;;;;;;3.77;3.47;;;;;;;1.34;100.00;99388.22;5035885;28;20480;-72
2021/12/19 04:37:12;;;;;;;6.67;4.80;;;;;;;1.34;100.00;99396.06;5037140;28;20962;-77
2021/12/19 04:39:51;;;;;;;7.60;4.57;;;;;;;1.32;100.00;99394.44;5001513;28;20216;-74
2021/12/19 04:51:12;;;;;;;4.70;4.27;;;;;;;1.15;100.00;99383.00;5029406;28;20329;-75
2021/12/19 04:53:54;;;;;;;4.10;3.80;;;;;;;1.11;100.00;99382.28;5007607;28;20234;-74
2021/12/19 04:56:37;;;;;;;4.00;3.60;;;;;;;1.13;100.00;99374.38;5035583;28;20486;-75
2021/12/19 05:05:02;;;;;;;4.60;4.20;;;;;;;1.10;100.00;99375.38;5033262;28;20235;-75
2021/12/19 05:15:47;;;;;;;4.40;4.00;;;;;;;1.08;100.00;99369.38;5030253;28;20484;-74
2021/12/19 05:18:15;;;;;;;4.43;4.07;;;;;;;1.08;100.00;99369.38;5022450;28;20235;-77
2021/12/19 05:20:53;;;;;;;4.03;3.63;;;;;;;1.08;100.00;99364.16;5030146;28;20472;-76
2021/12/19 05:23:26;;;;;;;3.53;3.30;;;;;;;1.09;100.00;99364.97;5032120;28;20227;-75
2021/12/19 05:25:54;;;;;;;4.60;4.20;;;;;;;1.10;100.00;99369.28;5008958;28;20214;-74
2021/12/19 05:28:23;;;;;;;5.33;3.23;;;;;;;1.19;100.00;99365.41;5035658;28;20207;-76
2021/12/19 05:30:51;;;;;;;3.93;3.63;;;;;;;1.17;100.00;99369.88;5022575;28;20333;-75
2021/12/19 05:33:19;;;;;;;3.60;3.30;;;;;;;1.17;100.00;99362.03;5033792;28;20230;-74
2021/12/19 05:36:08;;;;;;;4.03;3.73;;;;;;;1.13;100.00;99362.16;5019172;28;20243;-76
2021/12/19 05:45:12;;;;;;;3.40;3.17;;;;;;;1.12;100.00;99367.44;5018841;28;20721;-74
2021/12/19 05:47:04;;;;;;;3.63;3.33;;;;;;;1.10;100.00;99361.44;5039316;28;20199;-73
2021/12/19 05:49:32;;;;;;;3.60;3.40;;;;;;;1.11;100.00;99357.91;5022100;28;21143;-71
2021/12/19 05:52:02;;;;;;;3.70;3.40;;;;;;;1.09;100.00;99355.41;5039173;28;20218;-74
2021/12/19 05:54:30;;;;;;;3.63;3.33;;;;;;;1.15;100.00;99365.56;5032517;28;20879;-76
2021/12/19 05:56:59;;;;;;;3.90;3.60;;;;;;;1.12;100.00;99362.22;5007905;28;20234;-75
2021/12/19 05:59:45;;;;;;;4.20;3.90;;;;;;;1.10;100.00;99361.44;5022142;28;20204;-77
2021/12/19 06:02:23;;;;;;;3.47;3.17;;;;;;;1.11;100.00;99366.63;5030552;28;20620;-76
2021/12/19 06:05:01;;;;;;;4.07;3.77;;;;;;;1.15;100.00;99356.91;5036874;28;20782;-76
2021/12/19 06:07:41;;;;;;;4.47;4.03;;;;;;;1.07;100.00;99358.97;5029773;28;20208;-76
2021/12/19 06:10:28;;;;;;;4.37;4.07;;;;;;;1.07;100.00;99354.63;5015629;28;20269;-77
2021/12/19 06:13:01;;;;;;;4.23;3.93;;;;;;;1.10;100.00;99348.41;5027437;28;20324;-76
2021/12/19 06:15:29;;;;;;;4.23;3.93;;;;;;;1.17;100.00;99354.19;5016241;28;20696;-77
2021/12/19 06:17:58;;;;;;;4.23;3.93;;;;;;;1.08;100.00;99345.88;5040138;28;20608;-77
2021/12/19 06:20:33;;;;;;;4.27;3.87;;;;;;;1.12;100.00;99339.59;5023121;28;20200;-76
2021/12/19 06:23:09;;;;;;;5.10;4.63;;;;;;;1.08;100.00;99342.41;5033974;28;20234;-76
2021/12/19 06:25:45;;;;;;;4.47;4.17;;;;;;;1.11;100.00;99335.28;5031381;28;20387;-75
2021/12/19 06:28:13;;;;;;;3.90;3.60;;;;;;;1.17;100.00;99333.31;5001060;28;20767;-76
2021/12/19 06:30:44;;;;;;;4.50;4.20;;;;;;;1.11;100.00;99342.25;5033183;28;20207;-76
2021/12/19 06:33:13;;;;;;;4.90;4.33;;;;;;;1.20;100.00;99341.84;5021060;28;20727;-75
2021/12/19 06:35:42;;;;;;;4.80;4.40;;;;;;;1.17;100.00;99341.13;5026977;28;20267;-76
2021/12/19 06:38:16;;;;;;;4.33;4.03;;;;;;;1.14;100.00;99337.75;5033795;28;20668;-76
2021/12/19 06:40:46;;;;;;;4.47;4.17;;;;;;;1.15;100.00;99326.38;5029729;28;20239;-77
2021/12/19 06:43:19;;;;;;;4.20;3.90;;;;;;;1.17;100.00;99322.84;4996894;28;20314;-76
2021/12/19 06:45:49;;;;;;;4.47;4.17;;;;;;;1.09;100.00;99331.91;5033040;28;20234;-77
2021/12/19 06:48:19;;;;;;;4.10;3.80;;;;;;;1.06;100.00;99334.66;5015829;28;20900;-76
2021/12/19 06:50:52;;;;;;;4.50;4.20;;;;;;;1.06;100.00;99333.78;5027875;28;20211;-76
2021/12/19 06:53:27;;;;;;;3.83;3.60;;;;;;;1.08;100.00;99338.03;5036797;28;20226;-78
2021/12/19 06:56:01;;;;;;;4.70;4.40;;;;;;;1.10;100.00;99325.75;5017813;28;20215;-75
2021/12/19 06:58:32;;;;;;;4.37;4.07;;;;;;;1.08;100.00;99313.69;5003661;28;20211;-77
2021/12/19 07:01:00;;;;;;;4.13;3.73;;;;;;;1.14;100.00;99318.66;5037179;28;20928;-75
2021/12/19 07:03:29;;;;;;;4.37;4.03;;;;;;;1.16;100.00;99324.63;5020760;28;20603;-75
2021/12/19 07:05:57;;;;;;;4.10;3.80;;;;;;;1.10;100.00;99319.69;5036786;28;20220;-76
2021/12/19 07:08:28;;;;;;;4.97;4.53;;;;;;;1.12;100.00;99310.88;5020810;28;20222;-75
2021/12/19 07:10:57;;;;;;;4.03;3.73;;;;;;;1.10;100.00;99315.31;5037076;28;20215;-77
2021/12/19 07:13:26;;;;;;;4.27;3.87;;;;;;;1.15;100.00;99326.38;5002247;28;20478;-74
2021/12/19 07:15:56;;;;;;;4.47;4.17;;;;;;;1.17;100.00;99323.72;5038104;28;20207;-76
2021/12/19 07:18:31;;;;;;;4.30;3.90;;;;;;;1.21;100.00;99327.00;5021129;28;20208;-74
2021/12/19 07:21:00;;;;;;;4.37;4.00;;;;;;;1.21;100.00;99340.94;5037792;28;20211;-76
2021/12/19 07:23:30;;;;;;;4.87;4.30;;;;;;;1.18;100.00;99329.78;5022432;28;20236;-76
2021/12/19 07:26:01;;;;;;;5.90;5.00;;;;;;;1.11;100.00;99334.41;5035149;28;20264;-76
2021/12/19 07:28:31;;;;;;;6.43;4.97;;;;;;;1.13;100.00;99325.63;5000536;28;25235;-74
2021/12/19 07:31:01;;;;;;;25.87;11.83;;;;;;;1.17;100.00;99322.84;5039204;28;20215;-76
2021/12/19 07:33:31;;;;;;;39.97;29.70;;;;;;;1.24;100.00;99322.50;5034146;28;20623;-75
2021/12/19 07:36:01;;;;;;;33.30;27.10;;;;;;;1.19;100.00;99324.50;5023763;28;20596;-74
2021/12/19 07:38:40;;;;;;;10.93;9.93;;;;;;;1.21;100.00;99313.97;5019057;28;20842;-75
2021/12/19 07:41:11;;;;;;;6.63;6.03;;;;;;;1.22;100.00;99311.28;5040506;28;20653;-74
2021/12/19 07:43:39;;;;;;;9.70;8.87;;;;;;;1.15;100.00;99305.50;5033783;28;20224;-76
2021/12/19 07:46:07;;;;;;;7.50;6.90;;;;;;;1.21;100.00;99308.72;5007705;28;20231;-75
2021/12/19 07:48:37;;;;;;;7.20;6.60;;;;;;;1.22;100.00;99307.81;5036013;28;20424;-77
2021/12/19 07:51:17;;;;;;;5.70;5.20;;;;;;;1.26;100.00;99306.75;5027612;28;20203;-75
2021/12/19 07:53:58;;;;;;;6.07;5.57;;;;;;;1.16;100.00;99301.13;5039284;28;20393;-76
2021/12/19 07:56:33;;;;;;;5.90;5.40;;;;;;;1.19;100.00;99306.22;5026833;28;20286;-75
2021/12/19 07:59:01;;;;;;;7.33;6.67;;;;;;;1.21;100.00;99303.50;5043739;28;20631;-76
2021/12/19 08:01:29;;;;;;;6.23;5.73;;;;;;;1.19;100.00;99295.75;5004930;28;20422;-76
2021/12/19 08:03:57;;;;;;;6.30;5.73;;;;;;;1.25;100.00;99292.84;5033731;28;20235;-74
2021/12/19 08:06:26;;;;;;;6.90;6.20;;;;;;;1.37;100.00;99293.19;5018818;28;20223;-75
2021/12/19 08:08:57;;;;;;;6.20;5.70;;;;;;;1.39;100.00;99292.22;5037375;28;20212;-74
2021/12/19 08:11:42;;;;;;;6.77;6.23;;;;;;;1.33;100.00;99296.88;5021393;28;20615;-75
2021/12/19 08:14:12;;;;;;;14.37;10.37;;;;;;;1.36;100.00;99294.97;5033260;28;20235;-74
2021/12/19 08:16:41;;;;;;;5.63;5.13;;;;;;;1.36;100.00;99286.28;5004689;28;20710;-74
2021/12/19 08:19:09;;;;;;;19.20;13.63;;;;;;;1.33;100.00;99282.06;5020797;28;20211;-69
2021/12/19 08:21:38;;;;;;;9.40;7.30;;;;;;;1.37;100.00;99275.75;5025793;28;20286;-74
2021/12/19 08:24:11;;;;;;;6.63;6.03;;;;;;;1.49;100.00;99273.47;5040559;28;20231;-74
2021/12/19 08:26:40;;;;;;;122.03;75.33;;;;;;;1.41;100.00;99274.69;5020588;28;20230;-76
2021/12/19 08:29:11;;;;;;;13.33;11.93;;;;;;;1.43;100.00;99262.41;5035824;28;20556;-76
2021/12/19 08:31:39;;;;;;;7.70;7.00;;;;;;;1.52;100.00;99252.41;5007337;28;20211;-73
2021/12/19 08:34:07;;;;;;;9.93;8.70;;;;;;;1.47;100.00;99251.78;5037695;28;20228;-75
2021/12/19 08:36:35;;;;;;;10.03;9.07;;;;;;;1.59;100.00;99248.56;5041062;28;20627;-74
2021/12/19 08:39:03;;;;;;;8.37;7.57;;;;;;;1.59;100.00;99238.13;5023061;28;20422;-75
2021/12/19 08:41:33;;;;;;;6.73;6.13;;;;;;;1.58;100.00;99236.44;5023230;28;20204;-74
2021/12/19 08:44:01;;;;;;;8.43;6.73;;;;;;;1.65;100.00;99235.19;5037870;28;20854;-77
2021/12/19 08:46:32;;;;;;;8.30;7.43;;;;;;;1.72;100.00;99234.00;5023913;28;20227;-74
2021/12/19 08:49:00;;;;;;;7.33;6.60;;;;;;;1.73;100.00;99222.59;5029154;28;20223;-77
2021/12/19 08:51:29;;;;;;;17.03;12.07;;;;;;;1.72;100.00;99228.75;5033289;28;20203;-74
2021/12/19 08:53:59;;;;;;;15.23;9.40;;;;;;;1.71;100.00;99236.66;5020922;28;20340;-75
2021/12/19 08:56:29;;;;;;;14.17;11.03;;;;;;;1.73;100.00;99227.84;5034383;28;20668;-74
2021/12/19 08:58:58;;;;;;;36.00;19.10;;;;;;;1.71;100.00;99234.06;5031882;28;20772;-76
2021/12/19 09:01:27;;;;;;;33.97;18.80;;;;;;;1.68;100.00;99229.81;5035569;28;20215;-74
2021/12/19 09:03:55;;;;;;;19.70;12.17;;;;;;;1.73;100.00;99233.06;5010839;28;20518;-75
2021/12/19 09:06:24;;;;;;;12.87;9.67;;;;;;;1.80;100.00;99237.97;5038244;28;20712;-74
2021/12/19 09:08:52;;;;;;;204.93;86.03;;;;;;;1.75;100.00;99227.75;5036638;28;20584;-76
2021/12/19 09:11:20;;;;;;;14.97;11.70;;;;;;;1.82;100.00;99236.97;5024261;28;20778;-75
2021/12/19 09:13:48;;;;;;;14.77;12.20;;;;;;;1.79;100.00;99228.44;5028781;28;20766;-76
2021/12/19 09:16:17;;;;;;;10.57;9.43;;;;;;;1.89;100.00;99227.03;5040427;28;20262;-76
2021/12/19 09:19:05;;;;;;;11.30;9.07;;;;;;;1.84;100.00;99224.66;5021009;28;20247;-78
2021/12/19 09:21:33;;;;;;;11.97;10.67;;;;;;;1.94;100.00;99211.13;5038720;28;20660;-77
2021/12/19 09:24:03;;;;;;;12.43;9.33;;;;;;;2.00;100.00;99213.44;5026505;28;20223;-77
2021/12/19 09:26:31;;;;;;;10.57;9.50;;;;;;;2.02;100.00;99216.81;5019909;28;20219;-76
2021/12/19 09:28:59;;;;;;;12.17;10.80;;;;;;;1.95;100.00;99221.50;5034707;28;20234;-75
2021/12/19 09:31:29;;;;;;;11.87;10.53;;;;;;;1.94;100.00;99217.19;5018576;28;20211;-73
2021/12/19 09:33:57;;;;;;;9.27;8.30;;;;;;;1.84;100.00;99203.75;5003151;28;21647;-74
2021/12/19 09:36:26;;;;;;;8.93;7.90;;;;;;;1.88;100.00;99210.50;5030709;28;20575;-73
2021/12/19 09:38:54;;;;;;;12.87;9.10;;;;;;;1.85;100.00;99207.22;5038734;28;20429;-76
2021/12/19 09:41:28;;;;;;;9.83;8.83;;;;;;;1.84;100.00;99192.47;5022233;28;20216;-73
2021/12/19 09:43:58;;;;;;;10.30;9.33;;;;;;;1.79;100.00;99194.47;5033704;28;20346;-75
2021/12/19 09:46:37;;;;;;;8.43;7.53;;;;;;;1.77;100.00;99199.75;5033059;28;20235;-73
2021/12/19 09:49:06;;;;;;;9.33;8.17;;;;;;;1.84;100.00;99210.75;5006117;28;20207;-75
2021/12/19 09:51:34;;;;;;;9.57;8.57;;;;;;;1.77;100.00;99196.31;5027336;28;20203;-76
2021/12/19 09:54:02;;;;;;;10.57;9.20;;;;;;;1.83;100.00;99196.00;5033921;28;20731;-77
2021/12/19 09:56:33;;;;;;;9.07;8.27;;;;;;;1.82;100.00;99183.84;5008370;28;20208;-78
2021/12/19 09:59:02;;;;;;;9.70;8.67;;;;;;;1.93;100.00;99185.91;5023432;28;20211;-77
2021/12/19 10:01:32;;;;;;;10.57;8.37;;;;;;;1.89;100.00;99185.22;5018327;28;20269;-78
2021/12/19 10:04:00;;;;;;;9.63;8.73;;;;;;;1.89;100.00;99169.53;5035764;28;20240;-76
2021/12/19 10:06:30;;;;;;;9.90;8.97;;;;;;;1.95;100.00;99168.38;4999674;28;21134;-77
2021/12/19 10:09:10;;;;;;;10.30;7.67;;;;;;;1.91;100.00;99162.44;5036837;28;20208;-77
2021/12/19 10:11:55;;;;;;;9.00;8.10;;;;;;;1.84;100.00;99154.06;5024967;28;20663;-76
2021/12/19 10:14:28;;;;;;;9.70;8.77;;;;;;;1.97;100.00;99149.06;5019858;28;20758;-74
2021/12/19 10:17:00;;;;;;;8.93;8.03;;;;;;;1.90;100.00;99147.69;5017382;28;20212;-76
2021/12/19 10:19:44;;;;;;;10.37;8.50;;;;;;;1.85;100.00;99139.25;5029850;28;20219;-77
2021/12/19 10:22:28;;;;;;;8.37;7.57;;;;;;;1.92;100.00;99151.06;5003388;28;20215;-75
2021/12/19 10:24:58;;;;;;;8.57;7.70;;;;;;;1.94;100.00;99145.78;5031438;28;20300;-76
2021/12/19 10:27:36;;;;;;;9.20;8.30;;;;;;;1.87;100.00;99135.63;5019246;28;20254;-74
2021/12/19 10:30:10;;;;;;;9.13;8.23;;;;;;;1.81;100.00;99135.13;5019982;28;20215;-75
2021/12/19 10:32:50;;;;;;;10.07;8.30;;;;;;;1.92;100.00;99137.16;5032079;28;20211;-77
2021/12/19 10:35:21;;;;;;;8.80;7.90;;;;;;;1.89;100.00;99132.94;5011185;28;20762;-75
2021/12/19 10:37:49;;;;;;;8.43;7.63;;;;;;;1.82;100.00;99124.56;5017459;28;20200;-74
2021/12/19 10:40:17;;;;;;;9.00;8.10;;;;;;;1.80;100.00;99122.97;5035380;28;20208;-75
2021/12/19 10:42:53;;;;;;;8.43;7.63;;;;;;;1.81;100.00;99120.25;5020821;28;20219;-76
2021/12/19 10:45:30;;;;;;;8.97;8.07;;;;;;;1.91;100.00;99110.16;5022288;28;20211;-74
2021/12/19 10:48:27;;;;;;;7.90;7.13;;;;;;;1.82;100.00;99110.66;5021725;28;20227;-74
2021/12/19 10:50:59;;;;;;;8.80;7.90;;;;;;;1.88;100.00;99095.47;5000964;28;20397;-75
2021/12/19 10:53:31;;;;;;;9.77;8.50;;;;;;;1.86;100.00;99102.56;5018916;28;20487;-76
2021/12/19 10:56:01;;;;;;;10.43;9.40;;;;;;;1.87;100.00;99082.50;5035746;28;20203;-74
2021/12/19 10:58:36;;;;;;;9.43;8.43;;;;;;;1.90;100.00;99077.09;5002515;28;20212;-74
2021/12/19 11:01:14;;;;;;;9.07;7.93;;;;;;;1.90;100.00;99087.56;5020851;28;20277;-77
2021/12/19 11:03:47;;;;;;;8.73;7.83;;;;;;;1.75;100.00;99072.72;5006245;28;20231;-76
2021/12/19 11:06:20;;;;;;;9.33;8.43;;;;;;;1.75;100.00;99076.16;5040022;28;20540;-76
2021/12/19 11:08:50;;;;;;;8.77;7.90;;;;;;;1.82;100.00;99079.28;4992662;28;20223;-76
2021/12/19 11:11:39;;;;;;;10.77;9.63;;;;;;;1.92;100.00;99075.25;5030870;28;20207;-76
2021/12/19 11:14:08;;;;;;;9.93;8.70;;;;;;;1.94;100.00;99073.41;5027532;28;20231;-75
2021/12/19 11:16:36;;;;;;;13.57;10.73;;;;;;;2.02;100.00;99071.22;5021535;28;20214;-74
2021/12/19 11:19:05;;;;;;;9.07;8.17;;;;;;;1.88;100.00;99052.81;5030560;28;20210;-74
2021/12/19 11:21:35;;;;;;;9.47;8.10;;;;;;;1.87;100.00;99053.75;5022410;28;20203;-74
2021/12/19 11:24:05;;;;;;;10.03;9.00;;;;;;;1.85;100.00;99048.59;5000996;28;20336;-75
2021/12/19 11:26:34;;;;;;;8.73;7.93;;;;;;;1.90;100.00;99047.53;5036055;28;20742;-74
2021/12/19 11:29:02;;;;;;;9.47;8.33;;;;;;;1.96;100.00;99048.00;5027742;28;20643;-75
2021/12/19 11:31:32;;;;;;;8.87;7.97;;;;;;;1.81;100.00;99046.25;5023676;28;20208;-73
2021/12/19 11:34:13;;;;;;;8.63;7.83;;;;;;;1.81;100.00;99028.78;5017469;28;20238;-75
2021/12/19 11:36:45;;;;;;;9.07;8.13;;;;;;;1.84;100.00;99026.00;5026769;28;20844;-75
2021/12/19 11:39:14;;;;;;;9.40;7.63;;;;;;;1.90;100.00;99019.59;4992250;28;20215;-75
2021/12/19 11:42:07;;;;;;;9.87;8.87;;;;;;;1.92;100.00;99020.34;5037986;28;20203;-73
2021/12/19 11:44:40;;;;;;;10.40;9.37;;;;;;;1.96;100.00;99024.47;5009074;28;20231;-74
2021/12/19 11:47:14;;;;;;;8.53;7.73;;;;;;;1.87;100.00;99011.91;5011112;28;20317;-74
2021/12/19 11:50:14;;;;;;;9.60;8.60;;;;;;;1.87;100.00;99006.69;5020982;28;20474;-73
2021/12/19 11:52:52;;;;;;;9.27;7.10;;;;;;;1.90;100.00;99005.69;5026468;28;20233;-73
2021/12/19 11:55:32;;;;;;;8.53;7.70;;;;;;;1.85;100.00;98995.47;5002668;28;20592;-75
2021/12/19 11:58:32;;;;;;;8.77;7.87;;;;;;;1.88;100.00;98990.06;5034593;28;20249;-73
2021/12/19 12:01:06;;;;;;;9.73;8.73;;;;;;;1.93;100.00;98984.59;5021723;28;20692;-74
2021/12/19 12:03:47;;;;;;;9.67;8.77;;;;;;;1.94;100.00;98971.44;5024550;28;20227;-74
2021/12/19 12:06:29;;;;;;;8.40;7.60;;;;;;;1.85;100.00;98969.34;5023165;28;20242;-75
2021/12/19 12:09:32;;;;;;;11.10;8.87;;;;;;;1.85;100.00;98966.72;5006482;28;20456;-73
2021/12/19 12:12:26;;;;;;;11.00;8.60;;;;;;;1.87;100.00;98963.06;5031048;28;20663;-72
2021/12/19 12:15:04;;;;;;;9.47;8.57;;;;;;;1.81;100.00;98952.97;5021581;28;20740;-73
2021/12/19 12:17:37;;;;;;;9.53;8.53;;;;;;;1.91;100.00;98957.72;5032825;28;20206;-74
2021/12/19 12:20:33;;;;;;;8.40;7.60;;;;;;;1.88;100.00;98953.47;5012970;28;20210;-77
2021/12/19 12:23:10;;;;;;;9.40;7.97;;;;;;;1.81;100.00;98949.53;5024298;28;20783;-75
2021/12/19 12:25:44;;;;;;;9.37;8.47;;;;;;;1.84;100.00;98944.13;5004266;28;20212;-75
2021/12/19 12:28:18;;;;;;;9.27;7.77;;;;;;;1.80;100.00;98934.78;5024368;28;20881;-75
2021/12/19 12:30:48;;;;;;;9.53;7.83;;;;;;;1.74;100.00;98930.72;5025255;28;20767;-74
2021/12/19 12:33:31;;;;;;;9.70;8.07;;;;;;;1.70;100.00;98937.88;5021242;28;21072;-75
2021/12/19 12:36:00;;;;;;;8.30;7.50;;;;;;;1.69;100.00;98930.13;5030409;28;20207;-74
2021/12/19 12:38:34;;;;;;;9.23;8.33;;;;;;;1.70;100.00;98923.97;5036569;28;20226;-76
2021/12/19 12:41:40;;;;;;;10.37;9.10;;;;;;;1.83;100.00;98917.13;5001063;28;20672;-75
2021/12/19 12:44:12;;;;;;;9.63;8.40;;;;;;;1.76;100.00;98909.75;5023912;28;20758;-74
2021/12/19 12:46:49;;;;;;;9.07;8.00;;;;;;;1.85;100.00;98914.44;5024959;28;20353;-74